createdAt,value
2022-11-23T00:01:32.875Z,3.05
2022-11-23T00:04:13.774Z,2.58
2022-11-23T00:06:41.580Z,2.90
2022-11-23T00:09:11.518Z,2.88
2022-11-23T00:11:38.540Z,2.75
2022-11-23T00:14:05.624Z,2.92
2022-11-23T00:16:32.789Z,3.30
2022-11-23T00:19:01.984Z,3.15
2022-11-23T00:21:32.343Z,3.00
2022-11-23T00:23:59.644Z,3.22
2022-11-23T00:26:27.276Z,4.10
2022-11-23T00:28:54.331Z,3.13
2022-11-23T00:31:21.606Z,3.50
2022-11-23T00:33:52.219Z,3.00
2022-11-23T00:36:23.850Z,3.00
2022-11-23T00:38:54.539Z,3.25
2022-11-23T00:41:27.975Z,3.10
2022-11-23T00:43:55.070Z,3.40
2022-11-23T00:46:27.724Z,3.20
2022-11-23T00:48:57.242Z,3.53
2022-11-23T00:51:35.801Z,2.85
2022-11-23T00:54:05.880Z,3.00
2022-11-23T00:56:35.620Z,2.78
2022-11-23T00:59:04.032Z,2.88
2022-11-23T01:01:37.026Z,2.58
2022-11-23T01:04:07.950Z,2.58
2022-11-23T01:06:38.957Z,2.63
2022-11-23T01:09:11.038Z,2.10
2022-11-23T01:11:38.187Z,2.70
2022-11-23T01:14:06.115Z,2.60
2022-11-23T01:16:38.906Z,2.30
2022-11-23T01:19:13.720Z,2.50
2022-11-23T01:21:42.975Z,2.50
2022-11-23T01:24:25.478Z,2.08
2022-11-23T01:26:55.415Z,1.77
2022-11-23T01:29:24.493Z,2.00
2022-11-23T01:31:52.959Z,2.17
2022-11-23T01:34:21.810Z,2.15
2022-11-23T01:36:50.411Z,2.20
2022-11-23T01:39:17.450Z,2.70
2022-11-23T01:41:45.676Z,2.50
2022-11-23T01:44:34.398Z,2.83
2022-11-23T01:47:08.203Z,2.30
2022-11-23T01:49:48.415Z,1.85
2022-11-23T01:52:22.687Z,2.10
2022-11-23T01:54:55.807Z,1.98
2022-11-23T01:57:29.686Z,1.90
2022-11-23T01:59:57.784Z,1.90
2022-11-23T02:02:30.183Z,1.90
2022-11-23T02:05:01.628Z,1.90
2022-11-23T02:07:30.887Z,2.50
2022-11-23T02:09:58.298Z,1.80
2022-11-23T02:12:25.653Z,2.30
2022-11-23T02:14:52.720Z,1.95
2022-11-23T02:17:20.075Z,1.80
2022-11-23T02:20:10.297Z,1.73
2022-11-23T02:23:22.053Z,1.80
2022-11-23T02:26:00.181Z,2.03
2022-11-23T02:28:38.127Z,2.08
2022-11-23T02:33:54.083Z,2.10
2022-11-23T02:36:37.102Z,1.70
2022-11-23T02:39:31.043Z,2.30
2022-11-23T02:42:00.216Z,1.75
2022-11-23T02:44:36.673Z,1.65
2022-11-23T02:47:05.302Z,2.00
2022-11-23T02:49:33.041Z,1.83
2022-11-23T02:52:00.854Z,1.63
2022-11-23T02:54:27.891Z,2.10
2022-11-23T02:56:55.014Z,2.15
2022-11-23T02:59:22.471Z,2.00
2022-11-23T03:01:51.734Z,1.77
2022-11-23T03:04:23.067Z,2.05
2022-11-23T03:06:54.301Z,1.80
2022-11-23T03:09:21.602Z,2.25
2022-11-23T03:11:48.856Z,2.17
2022-11-23T03:14:16.510Z,2.03
2022-11-23T03:16:49.899Z,1.52
2022-11-23T03:19:18.890Z,1.73
2022-11-23T03:21:46.986Z,2.10
2022-11-23T03:24:14.070Z,2.00
2022-11-23T03:26:41.033Z,1.98
2022-11-23T03:29:10.633Z,2.53
2022-11-23T03:31:40.100Z,2.05
2022-11-23T03:34:11.937Z,1.95
2022-11-23T03:36:40.558Z,1.70
2022-11-23T03:39:08.571Z,2.10
2022-11-23T03:41:51.099Z,1.73
2022-11-23T03:44:22.046Z,1.70
2022-11-23T03:46:50.689Z,2.00
2022-11-23T03:49:17.810Z,1.90
2022-11-23T03:51:45.385Z,2.05
2022-11-23T03:54:12.453Z,2.20
2022-11-23T03:56:45.340Z,2.22
2022-11-23T03:59:15.814Z,1.77
2022-11-23T04:01:42.868Z,1.65
2022-11-23T04:04:18.994Z,2.33
2022-11-23T04:06:57.913Z,2.28
2022-11-23T04:09:30.279Z,2.00
2022-11-23T04:12:18.710Z,2.00
2022-11-23T04:14:46.095Z,2.20
2022-11-23T04:17:13.235Z,2.25
2022-11-23T04:19:41.282Z,2.03
2022-11-23T04:22:09.270Z,2.13
2022-11-23T04:24:40.836Z,2.25
2022-11-23T04:27:09.058Z,2.20
2022-11-23T04:29:38.591Z,2.55
2022-11-23T04:32:05.688Z,2.42
2022-11-23T04:34:32.987Z,2.10
2022-11-23T04:37:03.009Z,2.00
2022-11-23T04:39:36.638Z,2.20
2022-11-23T04:42:19.521Z,2.30
2022-11-23T04:44:52.066Z,2.33
2022-11-23T04:47:19.692Z,2.88
2022-11-23T04:49:48.884Z,2.38
2022-11-23T04:52:16.715Z,2.15
2022-11-23T04:54:49.162Z,2.47
2022-11-23T04:57:16.593Z,2.80
2022-11-23T04:59:45.550Z,1.98
2022-11-23T05:02:12.494Z,2.63
2022-11-23T05:04:52.039Z,2.35
2022-11-23T05:07:20.676Z,3.47
2022-11-23T05:09:54.462Z,2.45
2022-11-23T05:12:22.346Z,2.40
2022-11-23T05:14:50.494Z,2.38
2022-11-23T05:17:23.649Z,2.17
2022-11-23T05:19:55.772Z,2.60
2022-11-23T05:22:24.438Z,2.13
2022-11-23T05:24:52.531Z,2.90
2022-11-23T05:27:23.908Z,2.45
2022-11-23T05:29:51.312Z,2.00
2022-11-23T05:32:19.418Z,2.20
2022-11-23T05:34:46.433Z,3.25
2022-11-23T05:37:15.906Z,2.08
2022-11-23T05:39:51.519Z,1.85
2022-11-23T05:42:19.740Z,2.10
2022-11-23T05:44:50.713Z,2.53
2022-11-23T05:47:22.529Z,1.95
2022-11-23T05:49:50.968Z,2.42
2022-11-23T05:52:21.746Z,2.58
2022-11-23T05:54:48.850Z,2.15
2022-11-23T05:57:15.926Z,1.85
2022-11-23T05:59:44.640Z,2.60
2022-11-23T06:02:17.454Z,2.13
2022-11-23T06:04:44.816Z,2.15
2022-11-23T06:07:16.399Z,2.35
2022-11-23T06:09:58.260Z,2.20
2022-11-23T06:12:28.434Z,1.98
2022-11-23T06:14:56.828Z,2.30
2022-11-23T06:17:26.019Z,2.55
2022-11-23T06:19:56.924Z,2.40
2022-11-23T06:22:23.928Z,1.92
2022-11-23T06:25:00.384Z,3.45
2022-11-23T06:27:42.798Z,3.00
2022-11-23T06:30:17.040Z,2.35
2022-11-23T06:32:44.669Z,1.85
2022-11-23T06:35:11.909Z,1.90
2022-11-23T06:37:41.241Z,2.40
2022-11-23T06:40:12.207Z,3.25
2022-11-23T06:42:40.500Z,2.80
2022-11-23T06:45:19.122Z,2.60
2022-11-23T06:47:49.428Z,1.92
2022-11-23T06:50:19.150Z,2.90
2022-11-23T06:52:47.994Z,3.53
2022-11-23T06:55:16.293Z,3.30
2022-11-23T06:57:43.441Z,2.58
2022-11-23T07:00:13.356Z,2.70
2022-11-23T07:02:41.811Z,1.95
2022-11-23T07:05:09.874Z,2.60
2022-11-23T07:07:38.341Z,2.05
2022-11-23T07:10:13.657Z,2.22
2022-11-23T07:12:53.975Z,2.25
2022-11-23T07:15:22.685Z,2.50
2022-11-23T07:17:51.881Z,2.75
2022-11-23T07:20:21.346Z,3.88
2022-11-23T07:22:48.647Z,3.42
2022-11-23T07:25:18.939Z,2.30
2022-11-23T07:27:45.987Z,2.67
2022-11-23T07:30:14.721Z,2.75
2022-11-23T07:32:41.794Z,2.15
2022-11-23T07:35:09.211Z,2.67
2022-11-23T07:37:39.235Z,2.28
2022-11-23T07:40:07.555Z,2.80
2022-11-23T07:42:41.377Z,2.55
2022-11-23T07:45:11.746Z,2.58
2022-11-23T07:47:42.199Z,3.05
2022-11-23T07:50:11.936Z,2.70
2022-11-23T07:52:41.193Z,3.25
2022-11-23T07:55:08.980Z,2.67
2022-11-23T07:57:36.142Z,3.08
2022-11-23T08:00:04.941Z,2.50
2022-11-23T08:02:52.784Z,2.90
2022-11-23T08:05:27.356Z,3.30
2022-11-23T08:08:00.849Z,3.17
2022-11-23T08:10:32.741Z,2.50
2022-11-23T08:13:03.855Z,2.55
2022-11-23T08:15:31.316Z,1.98
2022-11-23T08:18:05.811Z,2.28
2022-11-23T08:23:00.891Z,2.20
2022-11-23T08:25:29.817Z,3.67
2022-11-23T08:28:04.142Z,2.15
2022-11-23T08:30:33.307Z,1.65
2022-11-23T08:33:04.753Z,2.22
2022-11-23T08:35:38.143Z,2.00
2022-11-23T08:38:06.716Z,1.95
2022-11-23T08:40:33.898Z,1.83
2022-11-23T08:43:01.294Z,2.45
2022-11-23T08:45:28.821Z,2.20
2022-11-23T08:48:01.039Z,1.60
2022-11-23T08:50:29.412Z,1.77
2022-11-23T08:52:59.529Z,1.80
2022-11-23T08:55:28.853Z,1.92
2022-11-23T08:57:59.748Z,1.75
2022-11-23T09:00:28.938Z,1.70
2022-11-23T09:03:00.815Z,1.98
2022-11-23T09:05:30.446Z,3.13
2022-11-23T09:08:01.156Z,2.00
2022-11-23T09:10:28.745Z,1.60
2022-11-23T09:12:56.022Z,1.60
2022-11-23T09:15:23.066Z,1.60
2022-11-23T09:17:50.156Z,1.90
2022-11-23T09:20:17.396Z,1.88
2022-11-23T09:22:55.025Z,1.80
2022-11-23T09:25:23.021Z,2.08
2022-11-23T09:27:57.521Z,1.88
2022-11-23T09:32:51.655Z,1.65
2022-11-23T09:35:18.726Z,2.05
2022-11-23T09:37:45.753Z,1.88
2022-11-23T09:40:20.240Z,2.10
2022-11-23T09:43:17.286Z,1.80
2022-11-23T09:45:52.297Z,1.80
2022-11-23T09:49:09.715Z,2.20
2022-11-23T09:51:41.424Z,1.90
2022-11-23T09:54:36.655Z,2.20
2022-11-23T09:59:59.079Z,1.63
2022-11-23T10:02:31.611Z,1.83
2022-11-23T10:05:01.333Z,1.77
2022-11-23T10:07:56.955Z,1.60
2022-11-23T10:10:41.913Z,1.83
2022-11-23T10:13:30.635Z,2.47
2022-11-23T10:16:28.704Z,2.03
2022-11-23T10:19:31.395Z,1.42
2022-11-23T10:22:20.081Z,1.58
2022-11-23T10:24:53.038Z,1.70
2022-11-23T10:27:24.603Z,2.20
2022-11-23T10:29:56.308Z,2.15
2022-11-23T10:32:50.566Z,3.20
2022-11-23T10:35:30.833Z,2.10
2022-11-23T10:38:18.509Z,1.83
2022-11-23T10:41:09.081Z,1.88
2022-11-23T10:43:55.598Z,1.45
2022-11-23T10:46:34.980Z,1.50
2022-11-23T10:49:24.501Z,1.75
2022-11-23T10:51:58.918Z,1.60
2022-11-23T10:57:39.886Z,2.35
2022-11-23T11:00:16.081Z,1.70
2022-11-23T11:02:54.443Z,2.28
2022-11-23T11:06:06.959Z,1.55
2022-11-23T11:08:20.818Z,2.08
2022-11-23T11:11:07.966Z,2.30
2022-11-23T11:13:48.157Z,1.80
2022-11-23T11:16:31.374Z,1.60
2022-11-23T11:19:00.224Z,1.67
2022-11-23T11:21:40.706Z,1.30
2022-11-23T11:24:20.921Z,1.23
2022-11-23T11:26:59.614Z,1.73
2022-11-23T11:29:38.907Z,1.50
2022-11-23T11:32:29.279Z,2.60
2022-11-23T11:35:09.921Z,1.80
2022-11-23T11:37:42.860Z,1.30
2022-11-23T11:40:17.189Z,1.58
2022-11-23T11:42:54.954Z,1.63
2022-11-23T11:45:34.113Z,1.55
2022-11-23T11:48:13.501Z,1.27
2022-11-23T11:51:09.948Z,1.33
2022-11-23T11:54:09.893Z,1.73
2022-11-23T11:56:41.786Z,1.80
2022-11-23T11:59:29.132Z,1.90
2022-11-23T12:02:14.554Z,1.70
2022-11-23T12:05:01.306Z,6.18
2022-11-23T12:07:36.358Z,2.42
2022-11-23T12:10:21.429Z,5.03
2022-11-23T12:12:48.703Z,2.08
2022-11-23T12:15:48.357Z,3.28
2022-11-23T12:18:32.853Z,3.35
2022-11-23T12:21:27.086Z,3.88
2022-11-23T12:24:19.960Z,1.70
2022-11-23T12:27:05.695Z,1.00
2022-11-23T12:29:49.817Z,0.88
2022-11-23T12:32:29.659Z,2.10
2022-11-23T12:36:01.528Z,3.53
2022-11-23T12:38:56.439Z,1.58
2022-11-23T12:41:38.410Z,3.15
2022-11-23T12:44:36.377Z,2.47
2022-11-23T12:47:27.485Z,4.22
2022-11-23T12:50:17.656Z,1.88
2022-11-23T12:53:06.027Z,2.83
2022-11-23T12:55:48.723Z,1.50
2022-11-23T12:58:30.578Z,1.13
2022-11-23T13:01:12.829Z,4.80
2022-11-23T13:04:23.011Z,4.68
2022-11-23T13:07:29.746Z,4.20
2022-11-23T13:10:08.040Z,4.30
2022-11-23T13:13:12.511Z,2.70
2022-11-23T13:16:26.053Z,12.13
2022-11-23T13:19:11.158Z,6.70
2022-11-23T13:21:46.109Z,1.65
2022-11-23T13:25:14.185Z,1.55
2022-11-23T13:27:48.470Z,1.63
2022-11-23T13:30:27.355Z,27.73
2022-11-23T13:33:23.644Z,5.55
2022-11-23T13:35:59.989Z,2.67
2022-11-23T13:38:38.715Z,1.45
2022-11-23T13:41:34.249Z,7.82
2022-11-23T13:44:18.772Z,2.70
2022-11-23T13:47:18.482Z,2.53
2022-11-23T13:49:48.518Z,2.30
2022-11-23T13:52:22.746Z,1.50
2022-11-23T13:55:32.126Z,1.98
2022-11-23T13:58:24.043Z,2.95
2022-11-23T14:00:56.440Z,1.98
2022-11-23T14:03:42.400Z,7.90
2022-11-23T14:06:54.555Z,1.80
2022-11-23T14:09:48.511Z,10.68
2022-11-23T14:12:35.044Z,16.20
2022-11-23T14:15:22.338Z,3.53
2022-11-23T14:18:20.718Z,2.70
2022-11-23T14:21:18.344Z,4.38
2022-11-23T14:24:18.677Z,2.65
2022-11-23T14:27:39.418Z,1.35
2022-11-23T14:30:20.587Z,4.38
2022-11-23T14:33:23.798Z,3.00
2022-11-23T14:36:18.174Z,1.67
2022-11-23T14:39:19.775Z,1.77
2022-11-23T14:41:59.938Z,1.80
2022-11-23T14:44:34.158Z,2.08
2022-11-23T14:47:09.460Z,2.20
2022-11-23T14:49:47.854Z,3.83
2022-11-23T14:52:21.399Z,1.88
2022-11-23T14:54:55.087Z,1.40
2022-11-23T14:57:28.768Z,2.38
2022-11-23T15:00:02.424Z,4.30
2022-11-23T15:02:39.532Z,2.75
2022-11-23T15:05:29.053Z,2.30
2022-11-23T15:08:15.673Z,2.50
2022-11-23T15:11:00.944Z,1.40
2022-11-23T15:13:42.207Z,1.38
2022-11-23T15:16:13.359Z,1.30
2022-11-23T15:18:41.166Z,1.50
2022-11-23T15:21:10.903Z,1.50
2022-11-23T15:23:47.001Z,1.15
2022-11-23T15:26:46.154Z,1.33
2022-11-23T15:29:36.173Z,1.42
2022-11-23T15:32:36.808Z,1.48
2022-11-23T15:35:10.295Z,1.30
2022-11-23T15:37:45.506Z,1.53
2022-11-23T15:40:16.764Z,1.20
2022-11-23T15:42:48.363Z,1.50
2022-11-23T15:45:36.006Z,54.75
2022-11-23T15:48:10.732Z,5.22
2022-11-23T15:50:56.018Z,2.60
2022-11-23T15:53:30.535Z,4.70
2022-11-23T15:56:05.447Z,9.50
2022-11-23T15:58:35.293Z,3.22
2022-11-23T16:01:15.066Z,3.45
2022-11-23T16:04:00.791Z,4.75
2022-11-23T16:06:38.276Z,4.85
2022-11-23T16:09:52.390Z,2.65
2022-11-23T16:13:03.726Z,3.00
2022-11-23T16:15:38.939Z,1.98
2022-11-23T16:18:28.071Z,2.35
2022-11-23T16:21:00.703Z,3.03
2022-11-23T16:23:44.455Z,2.35
2022-11-23T16:26:13.739Z,2.30
2022-11-23T16:28:55.271Z,2.83
2022-11-23T16:31:37.860Z,2.47
2022-11-23T16:34:18.928Z,2.00
2022-11-23T16:36:46.386Z,3.50
2022-11-23T16:39:13.494Z,2.58
2022-11-23T16:41:40.584Z,2.60
2022-11-23T16:44:07.676Z,7.25
2022-11-23T16:46:40.537Z,2.10
2022-11-23T16:49:18.300Z,2.05
2022-11-23T16:51:56.267Z,8.20
2022-11-23T16:54:25.293Z,2.10
2022-11-23T16:56:53.572Z,1.60
2022-11-23T16:59:22.264Z,2.20
2022-11-23T17:01:56.676Z,1.83
2022-11-23T17:04:25.217Z,1.98
2022-11-23T17:06:53.599Z,2.13
2022-11-23T17:09:21.263Z,2.30
2022-11-23T17:11:51.026Z,1.95
2022-11-23T17:14:30.289Z,2.00
2022-11-23T17:16:57.478Z,2.00
2022-11-23T17:19:28.187Z,2.03
2022-11-23T17:21:55.265Z,2.00
2022-11-23T17:24:23.322Z,2.15
2022-11-23T17:26:56.339Z,1.92
2022-11-23T17:29:24.202Z,1.70
2022-11-23T17:31:52.053Z,1.67
2022-11-23T17:34:19.223Z,1.83
2022-11-23T17:36:50.852Z,1.63
2022-11-23T17:39:24.295Z,1.90
2022-11-23T17:41:51.835Z,1.90
2022-11-23T17:44:20.273Z,1.90
2022-11-23T17:46:47.831Z,1.80
2022-11-23T17:49:20.102Z,1.73
2022-11-23T17:51:49.359Z,3.33
2022-11-23T17:54:18.456Z,6.43
2022-11-23T17:56:45.522Z,2.42
2022-11-23T17:59:13.335Z,2.88
2022-11-23T18:01:42.629Z,3.17
2022-11-23T18:04:09.904Z,9.93
2022-11-23T18:06:37.070Z,4.75
2022-11-23T18:09:04.573Z,13.75
2022-11-23T18:11:33.280Z,7.97
2022-11-23T18:14:00.535Z,4.00
2022-11-23T18:16:29.723Z,9.43
2022-11-23T18:18:56.805Z,17.08
2022-11-23T18:21:25.025Z,8.57
2022-11-23T18:23:52.357Z,3.92
2022-11-23T18:26:23.525Z,31.98
2022-11-23T18:28:50.591Z,37.28
2022-11-23T18:31:18.695Z,17.80
2022-11-23T18:33:46.839Z,39.03
2022-11-23T18:36:22.397Z,20.13
2022-11-23T18:38:49.683Z,12.07
2022-11-23T18:41:17.605Z,5.50
2022-11-23T18:43:45.419Z,6.03
2022-11-23T18:46:19.355Z,11.75
2022-11-23T18:48:48.970Z,11.13
2022-11-23T18:51:18.127Z,9.48
2022-11-23T18:53:47.669Z,10.02
2022-11-23T18:56:14.866Z,4.70
2022-11-23T18:58:44.541Z,9.13
2022-11-23T19:01:13.191Z,5.35
2022-11-23T19:03:41.993Z,8.77
2022-11-23T19:06:14.998Z,24.33
2022-11-23T19:08:48.778Z,11.05
2022-11-23T19:11:20.467Z,21.02
2022-11-23T19:13:54.511Z,31.25
2022-11-23T19:16:25.710Z,4.78
2022-11-23T19:19:05.642Z,9.32
2022-11-23T19:21:36.544Z,3.30
2022-11-23T19:24:05.019Z,4.38
2022-11-23T19:26:32.279Z,5.10
2022-11-23T19:28:59.585Z,4.88
2022-11-23T19:31:30.298Z,4.18
2022-11-23T19:34:02.258Z,3.30
2022-11-23T19:36:33.222Z,3.63
2022-11-23T19:39:00.607Z,3.22
2022-11-23T19:41:31.229Z,3.10
2022-11-23T19:44:00.294Z,3.22
2022-11-23T19:46:29.477Z,3.50
2022-11-23T19:48:58.397Z,3.70
2022-11-23T19:51:27.499Z,3.30
2022-11-23T19:53:57.621Z,3.70
2022-11-23T19:56:28.881Z,3.80
2022-11-23T19:59:00.099Z,3.78
2022-11-23T20:01:31.986Z,3.60
2022-11-23T20:04:09.602Z,3.47
2022-11-23T20:06:42.263Z,3.55
2022-11-23T20:09:19.093Z,3.95
2022-11-23T20:11:50.684Z,29.60
2022-11-23T20:14:18.712Z,21.15
2022-11-23T20:16:47.668Z,76.55
2022-11-23T20:19:14.704Z,89.28
2022-11-23T20:21:41.832Z,22.95
2022-11-23T20:24:13.684Z,44.28
2022-11-23T20:26:42.287Z,46.13
2022-11-23T20:29:10.697Z,34.30
2022-11-23T20:31:38.411Z,28.42
2022-11-23T20:34:07.741Z,42.85
2022-11-23T20:36:38.638Z,57.15
2022-11-23T20:39:10.140Z,49.83
2022-11-23T20:41:38.235Z,31.40
2022-11-23T20:44:13.629Z,17.63
2022-11-23T20:49:30.238Z,9.98
2022-11-23T20:51:58.474Z,8.38
2022-11-23T20:54:25.536Z,27.30
2022-11-23T20:56:52.504Z,14.43
2022-11-23T20:59:20.580Z,15.75
2022-11-23T21:01:47.750Z,13.85
2022-11-23T21:04:15.009Z,7.43
2022-11-23T21:06:42.179Z,5.68
2022-11-23T21:09:10.990Z,8.57
2022-11-23T21:11:56.804Z,14.88
2022-11-23T21:14:27.937Z,6.68
2022-11-23T21:16:59.190Z,7.20
2022-11-23T21:19:31.298Z,4.85
2022-11-23T21:22:03.537Z,4.35
2022-11-23T21:24:30.747Z,4.57
2022-11-23T21:26:58.179Z,3.65
2022-11-23T21:29:26.715Z,6.03
2022-11-23T21:31:54.260Z,5.55
2022-11-23T21:34:27.106Z,3.65
2022-11-23T21:36:56.516Z,3.60
2022-11-23T21:39:24.777Z,3.45
2022-11-23T21:41:53.792Z,3.17
2022-11-23T21:44:22.770Z,3.33
2022-11-23T21:46:51.049Z,3.90
2022-11-23T21:49:18.402Z,3.25
2022-11-23T21:51:45.929Z,3.05
2022-11-23T21:54:15.681Z,3.25
2022-11-23T21:56:45.436Z,3.17
2022-11-23T21:59:13.264Z,3.17
2022-11-23T22:01:41.102Z,2.70
2022-11-23T22:04:12.133Z,2.88
2022-11-23T22:06:42.069Z,3.10
2022-11-23T22:09:10.306Z,3.28
2022-11-23T22:11:41.113Z,3.10
2022-11-23T22:14:15.030Z,3.17
2022-11-23T22:16:49.786Z,3.63
2022-11-23T22:19:18.756Z,3.42
2022-11-23T22:21:46.830Z,3.20
2022-11-23T22:24:19.610Z,2.90
2022-11-23T22:26:48.731Z,3.30
2022-11-23T22:29:16.155Z,3.38
2022-11-23T22:31:43.784Z,3.88
2022-11-23T22:34:14.045Z,3.50
2022-11-23T22:36:42.072Z,3.75
2022-11-23T22:39:09.909Z,3.92
2022-11-23T22:41:38.412Z,3.13
2022-11-23T22:44:08.961Z,3.65
2022-11-23T22:46:37.782Z,3.63
2022-11-23T22:49:05.197Z,3.72
2022-11-23T22:51:32.613Z,3.17
2022-11-23T22:54:01.442Z,3.53
2022-11-23T22:56:31.390Z,3.05
2022-11-23T22:58:59.161Z,4.13
2022-11-23T23:01:30.173Z,3.45
2022-11-23T23:04:01.439Z,2.90
2022-11-23T23:06:34.744Z,3.72
2022-11-23T23:09:05.898Z,3.45
2022-11-23T23:11:34.933Z,3.03
2022-11-23T23:14:02.300Z,3.17
2022-11-23T23:16:30.032Z,3.20
2022-11-23T23:18:58.295Z,3.30
2022-11-23T23:21:28.069Z,3.17
2022-11-23T23:23:58.622Z,3.00
2022-11-23T23:26:28.496Z,3.30
2022-11-23T23:29:00.638Z,3.25
2022-11-23T23:31:30.074Z,3.55
2022-11-23T23:33:59.770Z,3.92
2022-11-23T23:36:26.975Z,3.80
2022-11-23T23:38:54.170Z,3.17
2022-11-23T23:41:21.556Z,4.00
2022-11-23T23:43:48.764Z,3.00
2022-11-23T23:46:16.715Z,3.20
2022-11-23T23:48:46.589Z,3.30
2022-11-23T23:51:27.354Z,3.47
2022-11-23T23:53:54.582Z,2.95
2022-11-23T23:56:26.282Z,3.15
2022-11-23T23:58:56.937Z,3.13
